Time;durP1;ratioP1;P1;durP2;ratioP2;P2;SDS_P1;SDS_P2;PMS_P1;PMS_P2;Temp;Humidity;BMP_temperature;BMP_pressure;BME280_temperature;BME280_humidity;BME280_pressure;Samples;Min_cycle;Max_cycle;Signal;HPM_P1;HPM_P2
2023/05/21 00:01:09;;;;;;;9.95;5.72;;;;;;;16.44;100.00;100145.38;5012384;28;20038;-72
2023/05/21 00:03:34;;;;;;;11.18;5.70;;;;;;;16.38;100.00;100131.44;5013795;28;20030;-71
2023/05/21 00:06:02;;;;;;;11.05;5.63;;;;;;;16.34;100.00;100138.34;5013274;28;20393;-71
2023/05/21 00:08:28;;;;;;;9.05;5.78;;;;;;;16.17;100.00;100135.59;5013655;28;20033;-73
2023/05/21 00:10:53;;;;;;;11.05;5.75;;;;;;;16.22;100.00;100135.63;5013701;28;20041;-72
2023/05/21 00:13:20;;;;;;;9.13;5.68;;;;;;;16.14;100.00;100143.41;5013470;28;20037;-72
2023/05/21 00:15:45;;;;;;;11.63;6.45;;;;;;;16.10;100.00;100131.19;5027371;28;20041;-75
2023/05/21 00:18:10;;;;;;;9.45;5.93;;;;;;;16.14;100.00;100135.59;5013329;28;20033;-72
2023/05/21 00:20:36;;;;;;;14.32;5.75;;;;;;;16.10;100.00;100125.97;5012946;28;20030;-71
2023/05/21 00:23:01;;;;;;;9.88;5.50;;;;;;;16.14;100.00;100128.63;5013478;28;20022;-72
2023/05/21 00:25:27;;;;;;;10.02;5.97;;;;;;;16.15;100.00;100116.50;5028717;28;20029;-73
2023/05/21 00:27:54;;;;;;;10.15;5.53;;;;;;;16.28;100.00;100131.34;5013188;28;20033;-74
2023/05/21 00:30:19;;;;;;;9.88;5.63;;;;;;;16.37;100.00;100137.50;5012907;28;20026;-74
2023/05/21 00:32:45;;;;;;;8.88;6.57;;;;;;;16.26;100.00;100116.56;5011720;28;20033;-73
2023/05/21 00:35:10;;;;;;;10.07;5.70;;;;;;;16.42;100.00;100134.03;5012735;28;20029;-72
2023/05/21 00:37:36;;;;;;;8.38;5.30;;;;;;;16.42;100.00;100123.63;5013423;28;20084;-74
2023/05/21 00:40:05;;;;;;;7.32;5.55;;;;;;;16.28;100.00;100125.28;5012645;28;20026;-73
2023/05/21 00:42:31;;;;;;;10.43;5.75;;;;;;;16.21;100.00;100126.94;5013166;28;20030;-71
2023/05/21 00:44:56;;;;;;;8.45;6.00;;;;;;;16.16;100.00;100126.91;5012753;28;20455;-72
2023/05/21 00:47:22;;;;;;;8.48;5.78;;;;;;;15.88;100.00;100091.09;4980612;28;20141;-73
2023/05/21 00:49:50;;;;;;;8.10;5.45;;;;;;;15.97;100.00;100123.25;5011733;28;20113;-72
2023/05/21 00:52:19;;;;;;;7.90;5.55;;;;;;;15.82;100.00;100107.50;5012556;28;20049;-70
2023/05/21 00:54:47;;;;;;;9.63;5.32;;;;;;;15.84;100.00;100111.00;5013409;28;20026;-72
2023/05/21 00:57:13;;;;;;;10.18;5.97;;;;;;;15.77;100.00;100103.97;5012851;28;20022;-71
2023/05/21 00:59:38;;;;;;;8.15;5.32;;;;;;;15.63;100.00;100133.31;5012856;28;20053;-72
2023/05/21 01:02:05;;;;;;;9.38;6.20;;;;;;;15.45;100.00;100127.91;5012832;28;20030;-71
2023/05/21 01:04:32;;;;;;;9.38;6.25;;;;;;;15.24;100.00;100123.31;5012583;28;20029;-73
2023/05/21 01:06:57;;;;;;;9.00;5.95;;;;;;;15.05;100.00;100110.06;5012847;28;20084;-76
2023/05/21 01:09:27;;;;;;;9.70;5.68;;;;;;;15.01;100.00;100123.91;5012643;28;20408;-70
2023/05/21 01:11:54;;;;;;;11.65;6.20;;;;;;;14.95;100.00;100116.00;5012636;28;20058;-71
2023/05/21 01:14:23;;;;;;;11.23;5.88;;;;;;;14.89;100.00;100109.00;5012548;28;20080;-72
2023/05/21 01:16:49;;;;;;;9.25;5.65;;;;;;;14.75;100.00;100092.38;5012465;28;20112;-71
2023/05/21 01:19:17;;;;;;;8.43;6.50;;;;;;;14.87;100.00;100100.31;5012405;28;20050;-70
2023/05/21 01:21:51;;;;;;;9.35;5.45;;;;;;;14.62;100.00;100053.19;5012723;28;20025;-71
2023/05/21 01:24:17;;;;;;;14.40;6.63;;;;;;;14.95;100.00;100100.41;5012300;28;20037;-75
2023/05/21 01:26:45;;;;;;;10.88;6.60;;;;;;;14.84;100.00;100115.88;5012254;28;20076;-71
2023/05/21 01:29:12;;;;;;;10.55;5.70;;;;;;;14.82;100.00;100109.78;5009998;28;20108;-71
2023/05/21 01:32:21;;;;;;;10.25;6.32;;;;;;;14.95;100.00;100109.06;5012081;28;20455;-70
2023/05/21 01:35:01;;;;;;;10.05;5.85;;;;;;;14.98;100.00;100109.13;5012165;28;20136;-70
2023/05/21 01:37:40;;;;;;;9.77;5.70;;;;;;;15.03;100.00;100109.22;5012279;28;20109;-70
2023/05/21 01:40:18;;;;;;;7.78;5.50;;;;;;;15.03;100.00;100097.06;5012095;28;20042;-73
2023/05/21 01:42:44;;;;;;;10.82;6.03;;;;;;;15.10;100.00;100099.75;5012171;28;20030;-70
2023/05/21 01:45:13;;;;;;;12.40;5.60;;;;;;;15.14;100.00;100093.72;5012085;28;20108;-71
2023/05/21 01:47:39;;;;;;;14.27;5.82;;;;;;;15.08;100.00;100085.84;5012002;28;20034;-71
2023/05/21 01:50:06;;;;;;;11.75;6.00;;;;;;;14.96;100.00;100083.97;5011877;28;20160;-74
2023/05/21 01:52:31;;;;;;;9.15;6.53;;;;;;;14.94;100.00;100096.97;5011898;28;20037;-70
2023/05/21 01:54:56;;;;;;;10.73;5.75;;;;;;;14.76;100.00;100087.19;5011837;28;20029;-71
2023/05/21 01:57:22;;;;;;;17.88;6.05;;;;;;;14.71;100.00;100101.84;5011926;28;20034;-70
2023/05/21 01:59:48;;;;;;;9.88;5.65;;;;;;;14.43;100.00;100095.31;5011654;28;20050;-70
2023/05/21 02:02:13;;;;;;;10.18;6.15;;;;;;;14.42;100.00;100088.38;5010569;28;20604;-71
2023/05/21 02:04:40;;;;;;;10.82;6.35;;;;;;;14.38;100.00;100100.44;5011519;28;20038;-70
2023/05/21 02:07:06;;;;;;;9.23;5.90;;;;;;;14.20;100.00;100090.66;5009499;28;20424;-71
2023/05/21 02:09:32;;;;;;;10.68;6.60;;;;;;;14.08;100.00;100089.59;5011703;28;20045;-70
2023/05/21 02:11:57;;;;;;;10.10;6.10;;;;;;;14.16;100.00;100092.31;5011513;28;20030;-70
2023/05/21 02:14:24;;;;;;;8.63;6.45;;;;;;;14.21;100.00;100097.59;5011496;28;20040;-70
2023/05/21 02:16:51;;;;;;;11.38;5.88;;;;;;;14.21;100.00;100097.59;5011202;28;20392;-70
2023/05/21 02:19:17;;;;;;;10.45;6.35;;;;;;;13.63;100.00;99998.88;5011063;28;20033;-72
2023/05/21 02:21:42;;;;;;;12.10;6.43;;;;;;;14.06;100.00;100075.72;5026648;28;20033;-70
2023/05/21 02:24:08;;;;;;;9.18;6.65;;;;;;;14.00;100.00;100069.56;5011791;28;20029;-70
2023/05/21 02:26:33;;;;;;;13.23;6.40;;;;;;;14.13;100.00;100088.78;5011404;28;20484;-71
2023/05/21 02:28:59;;;;;;;7.80;5.50;;;;;;;14.14;100.00;100094.00;5011404;28;20080;-70
2023/05/21 02:31:25;;;;;;;10.75;6.47;;;;;;;14.22;100.00;100083.78;5011161;28;20022;-70
2023/05/21 02:33:50;;;;;;;11.18;6.13;;;;;;;14.32;100.00;100095.19;5011084;28;20484;-71
2023/05/21 02:36:17;;;;;;;10.88;5.85;;;;;;;14.36;100.00;100094.38;5011533;28;20038;-71
2023/05/21 02:38:44;;;;;;;10.65;5.82;;;;;;;14.40;100.00;100091.84;5011143;28;20065;-70
2023/05/21 02:41:12;;;;;;;14.05;6.50;;;;;;;14.52;100.00;100098.06;5010892;28;20037;-70
2023/05/21 02:43:38;;;;;;;10.70;5.72;;;;;;;14.56;100.00;100094.66;5011126;28;20036;-70
2023/05/21 02:46:05;;;;;;;37.50;22.67;;;;;;;14.50;100.00;100076.38;5010888;28;20425;-70
2023/05/21 02:48:30;;;;;;;19.70;10.23;;;;;;;14.62;100.00;100099.09;5010610;28;20030;-71
2023/05/21 02:50:56;;;;;;;11.23;8.18;;;;;;;14.45;100.00;100094.50;5011203;28;20037;-70
2023/05/21 02:53:22;;;;;;;10.10;7.15;;;;;;;14.04;100.00;100108.59;5010837;28;20424;-71
2023/05/21 02:55:47;;;;;;;17.55;12.95;;;;;;;13.87;100.00;100086.66;5010966;28;20076;-70
2023/05/21 02:58:13;;;;;;;18.33;12.88;;;;;;;13.76;100.00;100109.81;5010912;28;20497;-70
2023/05/21 03:00:39;;;;;;;17.20;14.52;;;;;;;13.32;100.00;100043.28;5041583;28;20037;-72
2023/05/21 03:03:04;;;;;;;10.65;7.03;;;;;;;13.61;100.00;100087.06;5010128;28;20439;-72
2023/05/21 03:05:30;;;;;;;9.82;7.20;;;;;;;13.74;100.00;100093.34;5010669;28;20399;-70
2023/05/21 03:07:56;;;;;;;13.60;10.13;;;;;;;13.91;100.00;100110.06;5010659;28;20092;-70
2023/05/21 03:10:21;;;;;;;11.45;6.57;;;;;;;14.00;100.00;100105.91;5010816;28;20030;-70
2023/05/21 03:12:46;;;;;;;11.50;7.03;;;;;;;13.98;100.00;100098.09;5010200;28;20026;-70
2023/05/21 03:15:15;;;;;;;10.02;6.40;;;;;;;13.99;100.00;100101.56;5010445;28;20022;-71
2023/05/21 03:17:41;;;;;;;13.10;7.10;;;;;;;13.99;100.00;100105.00;5010384;28;20034;-72
2023/05/21 03:20:15;;;;;;;14.77;6.70;;;;;;;13.58;100.00;100019.56;5005983;28;20479;-71
2023/05/21 03:22:42;;;;;;;11.43;6.75;;;;;;;14.02;100.00;100105.06;5038446;28;20044;-70
2023/05/21 03:25:08;;;;;;;9.40;6.18;;;;;;;14.02;100.00;100105.06;4991163;28;20027;-73
2023/05/21 03:27:34;;;;;;;12.88;6.90;;;;;;;14.06;100.00;100109.47;4990832;28;20036;-71
2023/05/21 03:30:00;;;;;;;11.07;8.00;;;;;;;14.02;100.00;100115.47;4990729;28;20030;-71
2023/05/21 03:32:25;;;;;;;9.68;6.57;;;;;;;13.87;100.00;100115.22;4990643;28;20037;-72
2023/05/21 03:34:50;;;;;;;9.45;6.00;;;;;;;13.83;100.00;100118.56;4991054;28;20441;-71
2023/05/21 03:37:16;;;;;;;10.48;6.97;;;;;;;13.30;100.00;100033.72;4991028;28;20057;-71
2023/05/21 03:39:41;;;;;;;10.80;8.20;;;;;;;13.71;100.00;100109.72;5004758;28;20030;-72
2023/05/21 03:42:06;;;;;;;11.45;7.43;;;;;;;13.45;100.00;100052.19;5009197;28;20029;-71
2023/05/21 03:44:32;;;;;;;9.00;6.45;;;;;;;13.80;100.00;100088.25;5010475;28;20167;-72
2023/05/21 03:46:57;;;;;;;11.25;6.80;;;;;;;13.53;100.00;100023.78;5010326;28;20022;-70
2023/05/21 03:49:24;;;;;;;9.95;6.40;;;;;;;13.81;100.00;100068.41;5010451;28;20101;-71
2023/05/21 03:51:50;;;;;;;9.85;6.07;;;;;;;14.00;100.00;100100.72;5010337;28;20828;-71
2023/05/21 03:54:15;;;;;;;10.23;6.38;;;;;;;14.11;100.00;100103.50;5010203;28;20030;-70
2023/05/21 03:56:41;;;;;;;8.48;6.25;;;;;;;14.17;100.00;100104.47;5010572;28;20106;-71
2023/05/21 03:59:06;;;;;;;9.98;6.65;;;;;;;14.13;100.00;100107.88;5010360;28;20057;-69
2023/05/21 04:01:32;;;;;;;11.32;6.57;;;;;;;13.39;100.00;99982.06;5009940;28;20499;-72
2023/05/21 04:03:57;;;;;;;10.95;6.97;;;;;;;14.24;100.00;100114.09;5009255;28;20037;-71
2023/05/21 04:06:23;;;;;;;11.63;6.80;;;;;;;14.33;100.00;100120.28;5009589;28;20057;-71
2023/05/21 04:08:48;;;;;;;13.77;6.63;;;;;;;14.36;100.00;100115.16;5009617;28;20034;-72
2023/05/21 04:11:14;;;;;;;14.07;7.70;;;;;;;14.38;100.00;100106.53;5009616;28;20038;-71
2023/05/21 04:13:39;;;;;;;9.93;6.45;;;;;;;14.46;100.00;100108.38;5010161;28;20026;-71
2023/05/21 04:16:07;;;;;;;9.95;6.30;;;;;;;14.55;100.00;100116.28;5009912;28;20033;-71
2023/05/21 04:18:33;;;;;;;10.88;6.88;;;;;;;14.62;100.00;100119.88;5007278;28;20062;-75
2023/05/21 04:21:00;;;;;;;9.65;6.45;;;;;;;14.56;100.00;100092.06;5005428;28;20129;-72
2023/05/21 04:23:27;;;;;;;9.35;5.90;;;;;;;14.72;100.00;100120.03;5001623;28;20095;-71
2023/05/21 04:25:52;;;;;;;11.63;6.60;;;;;;;14.77;100.00;100121.84;4995169;28;20401;-72
2023/05/21 04:28:18;;;;;;;11.63;6.95;;;;;;;14.72;100.00;100120.03;5013258;28;20037;-72
2023/05/21 04:30:48;;;;;;;10.40;6.85;;;;;;;14.74;100.00;100119.19;5005261;28;20480;-70
2023/05/21 04:33:18;;;;;;;11.07;6.75;;;;;;;14.63;100.00;100114.69;5013373;28;20026;-73
2023/05/21 04:35:50;;;;;;;11.80;7.85;;;;;;;14.56;100.00;100136.22;5013522;28;20037;-72
2023/05/21 04:38:18;;;;;;;11.55;6.88;;;;;;;14.55;100.00;100134.47;5013570;28;20029;-72
2023/05/21 04:40:51;;;;;;;12.73;7.03;;;;;;;14.55;100.00;100127.56;5013244;28;20060;-71
2023/05/21 04:43:24;;;;;;;8.77;6.28;;;;;;;14.74;100.00;100137.38;5009653;28;20057;-70
2023/05/21 04:45:50;;;;;;;11.20;6.57;;;;;;;14.86;100.00;100137.56;5012837;28;20053;-72
2023/05/21 04:48:16;;;;;;;13.88;7.20;;;;;;;14.98;100.00;100142.94;5012968;28;20377;-70
2023/05/21 04:50:42;;;;;;;13.02;6.78;;;;;;;15.08;100.00;100137.84;5012938;28;20033;-70
2023/05/21 04:53:08;;;;;;;10.73;6.68;;;;;;;15.00;100.00;100136.03;5012992;28;20022;-75
2023/05/21 04:55:38;;;;;;;7.85;6.28;;;;;;;15.08;100.00;100150.84;5012547;28;20064;-72
2023/05/21 04:58:04;;;;;;;10.50;6.18;;;;;;;14.89;100.00;100124.59;5013144;28;20038;-72
2023/05/21 05:00:30;;;;;;;12.65;6.70;;;;;;;15.06;100.00;100152.56;5011698;28;20113;-71
2023/05/21 05:02:55;;;;;;;11.02;7.63;;;;;;;15.13;100.00;100146.59;5012962;28;20129;-72
2023/05/21 05:05:21;;;;;;;10.40;6.47;;;;;;;15.21;100.00;100142.34;5013051;28;20022;-71
2023/05/21 05:07:47;;;;;;;13.43;6.20;;;;;;;15.35;100.00;100147.72;5012729;28;20052;-71
2023/05/21 05:10:12;;;;;;;10.15;6.65;;;;;;;15.06;100.00;100087.56;5012600;28;20424;-72
2023/05/21 05:12:37;;;;;;;9.63;7.03;;;;;;;15.44;100.00;100145.25;5012829;28;20079;-71
2023/05/21 05:15:03;;;;;;;12.18;6.47;;;;;;;15.51;100.00;100144.47;5012963;28;20053;-75
2023/05/21 05:17:29;;;;;;;11.25;6.70;;;;;;;15.59;100.00;100139.34;5012773;28;20563;-72
2023/05/21 05:19:55;;;;;;;14.77;7.32;;;;;;;15.65;100.00;100143.72;5010882;28;20484;-72
2023/05/21 05:22:20;;;;;;;12.15;6.97;;;;;;;15.65;100.00;100142.00;5012088;28;20538;-72
2023/05/21 05:24:45;;;;;;;13.75;6.90;;;;;;;15.67;100.00;100144.63;5012351;28;20514;-71
2023/05/21 05:27:11;;;;;;;12.90;7.57;;;;;;;15.72;100.00;100136.88;5011895;28;20034;-76
2023/05/21 05:29:36;;;;;;;10.20;7.78;;;;;;;15.75;100.00;100142.09;5010906;28;20030;-69
2023/05/21 05:32:04;;;;;;;14.15;8.10;;;;;;;15.40;100.00;100062.81;5010973;28;20144;-75
2023/05/21 05:34:31;;;;;;;12.52;8.23;;;;;;;15.95;100.00;100142.31;4999618;28;20608;-75
2023/05/21 05:36:56;;;;;;;14.15;7.30;;;;;;;16.06;100.00;100140.69;5011115;28;20128;-75
2023/05/21 05:39:22;;;;;;;12.10;7.60;;;;;;;16.14;100.00;100141.66;5041910;28;20128;-76
2023/05/21 05:41:47;;;;;;;16.20;12.82;;;;;;;15.89;100.00;100078.06;5011491;28;20036;-75
2023/05/21 05:44:13;;;;;;;18.10;14.15;;;;;;;16.27;100.00;100136.53;5011361;28;20401;-75
2023/05/21 05:46:38;;;;;;;15.30;9.70;;;;;;;16.43;100.00;100142.75;5011305;28;20041;-71
2023/05/21 05:49:03;;;;;;;10.85;8.07;;;;;;;16.42;100.00;100112.34;5011187;28;20056;-72
2023/05/21 05:51:30;;;;;;;12.38;7.30;;;;;;;16.51;100.00;100133.28;5011607;28;20025;-70
2023/05/21 05:53:55;;;;;;;13.93;7.13;;;;;;;16.61;100.00;100145.50;5010987;28;20022;-71
2023/05/21 05:56:21;;;;;;;10.75;5.97;;;;;;;16.66;100.00;100148.16;5010125;28;20088;-77
2023/05/21 05:58:46;;;;;;;13.70;6.43;;;;;;;16.69;100.00;100149.91;5009700;28;20038;-73
2023/05/21 06:01:12;;;;;;;9.85;6.63;;;;;;;16.71;100.00;100143.84;5011300;28;20036;-78
2023/05/21 06:03:37;;;;;;;8.85;6.00;;;;;;;16.45;100.00;100088.94;5011799;28;20560;-73
2023/05/21 06:06:03;;;;;;;12.23;5.90;;;;;;;16.82;100.00;100146.47;5011393;28;20033;-73
2023/05/21 06:11:41;;;;;;;11.88;5.70;;;;;;;16.88;100.00;100148.28;5133241;23;20067;-74
2023/05/21 06:14:06;;;;;;;10.77;5.35;;;;;;;16.88;100.00;100151.72;4972703;28;20023;-73
2023/05/21 06:16:32;;;;;;;9.98;5.32;;;;;;;16.86;100.00;100137.84;4987230;28;20042;-73
2023/05/21 06:18:58;;;;;;;8.77;5.28;;;;;;;16.99;100.00;100149.22;4991897;28;20026;-73
2023/05/21 06:21:23;;;;;;;7.10;5.03;;;;;;;17.06;99.72;100144.91;4989565;28;20038;-73
2023/05/21 06:23:49;;;;;;;11.50;6.30;;;;;;;17.09;97.15;100144.94;5022487;28;20420;-76
2023/05/21 06:26:15;;;;;;;9.85;5.47;;;;;;;17.10;98.63;100147.56;4991927;28;20496;-73
2023/05/21 06:28:40;;;;;;;10.77;4.75;;;;;;;17.15;96.75;100147.59;4991782;28;20026;-72
2023/05/21 06:31:07;;;;;;;9.30;4.78;;;;;;;17.17;96.64;100138.03;4991543;28;20085;-76
2023/05/21 06:33:33;;;;;;;9.68;5.28;;;;;;;17.18;99.06;100139.75;4991477;28;20019;-73
2023/05/21 06:36:00;;;;;;;10.45;5.53;;;;;;;17.21;100.00;100147.59;4991673;28;20088;-73
2023/05/21 06:38:25;;;;;;;8.40;5.07;;;;;;;16.88;100.00;100077.88;4991609;28;20055;-72
2023/05/21 06:40:51;;;;;;;11.93;5.28;;;;;;;17.25;100.00;100144.13;4991453;28;20045;-72
2023/05/21 06:43:16;;;;;;;11.68;5.47;;;;;;;17.35;100.00;100142.44;4979009;28;20043;-77
2023/05/21 06:45:41;;;;;;;10.52;5.47;;;;;;;17.43;100.00;100140.75;4972180;28;20033;-72
2023/05/21 06:48:07;;;;;;;12.20;6.20;;;;;;;17.55;100.00;100145.13;5018228;28;20541;-72
2023/05/21 06:50:32;;;;;;;8.02;5.13;;;;;;;17.53;100.00;100146.84;4972271;28;20019;-73
2023/05/21 06:52:58;;;;;;;8.18;4.97;;;;;;;17.49;99.09;100142.50;4973188;28;20101;-72
2023/05/21 06:55:23;;;;;;;7.60;5.03;;;;;;;17.57;99.91;100143.41;4972058;28;20419;-73
2023/05/21 06:57:49;;;;;;;9.07;4.80;;;;;;;17.61;99.06;100134.69;4972294;28;20497;-72
2023/05/21 07:00:14;;;;;;;8.60;5.07;;;;;;;17.62;96.49;100146.88;4971813;28;20022;-72
2023/05/21 07:02:40;;;;;;;15.32;5.20;;;;;;;17.73;96.96;100141.69;5008267;28;20046;-72
2023/05/21 07:05:05;;;;;;;9.20;4.97;;;;;;;17.76;93.84;100144.31;5008456;28;20048;-75
2023/05/21 07:07:30;;;;;;;10.32;5.45;;;;;;;17.84;95.47;100146.06;5008464;28;20049;-72
2023/05/21 07:09:56;;;;;;;11.13;4.60;;;;;;;17.89;96.88;100137.34;5008200;28;20060;-73
2023/05/21 07:12:21;;;;;;;11.40;5.82;;;;;;;17.95;95.58;100144.38;5008525;28;20534;-71
2023/05/21 07:14:47;;;;;;;12.10;5.18;;;;;;;17.57;98.83;100070.31;5008457;28;20563;-72
2023/05/21 07:17:12;;;;;;;11.57;5.43;;;;;;;17.66;96.85;100076.41;5008408;28;20049;-71
2023/05/21 07:19:38;;;;;;;9.60;5.47;;;;;;;18.08;98.51;100132.19;5007874;28;20069;-75
2023/05/21 07:25:15;;;;;;;10.00;5.47;;;;;;;17.43;97.60;100022.44;5082940;23;20102;-73
2023/05/21 07:27:40;;;;;;;8.90;5.10;;;;;;;18.12;96.10;100141.78;5030489;28;20033;-73
2023/05/21 07:30:07;;;;;;;10.43;5.35;;;;;;;18.05;97.07;100122.59;5030696;28;20585;-73
2023/05/21 07:32:33;;;;;;;8.30;4.80;;;;;;;18.25;95.61;100138.28;5030607;28;20071;-74
2023/05/21 07:35:00;;;;;;;9.32;5.47;;;;;;;18.24;94.15;100135.69;5028539;28;20033;-76
2023/05/21 07:40:48;;;;;;;10.05;5.70;;;;;;;18.23;96.52;100126.97;5146500;23;20523;-73
2023/05/21 07:43:13;;;;;;;9.52;6.57;;;;;;;18.19;96.11;100135.66;5010961;28;20018;-73
2023/05/21 07:45:38;;;;;;;8.20;5.32;;;;;;;18.23;96.42;100140.03;5010777;28;20485;-73
2023/05/21 07:48:04;;;;;;;7.85;5.40;;;;;;;18.23;98.33;100132.22;5010819;28;20076;-73
2023/05/21 07:50:30;;;;;;;9.57;5.45;;;;;;;18.16;96.31;100121.75;5010647;28;20068;-77
2023/05/21 07:52:55;;;;;;;10.50;5.13;;;;;;;18.20;98.13;100126.09;5010389;28;20037;-72
2023/05/21 07:55:20;;;;;;;10.18;5.20;;;;;;;18.29;96.78;100131.31;5010662;28;20385;-72
2023/05/21 07:57:46;;;;;;;9.52;5.50;;;;;;;18.31;97.14;100140.03;5009099;28;20053;-72
2023/05/21 08:00:15;;;;;;;9.82;5.50;;;;;;;17.82;97.67;100048.56;5012628;28;20022;-75
2023/05/21 08:02:40;;;;;;;11.75;5.40;;;;;;;18.33;97.76;100142.66;5014629;28;20048;-71
2023/05/21 08:05:06;;;;;;;11.50;6.00;;;;;;;18.02;98.39;100082.56;5014620;28;20480;-76
2023/05/21 08:07:32;;;;;;;11.45;4.93;;;;;;;18.44;98.15;100148.75;5014468;28;20464;-72
2023/05/21 08:09:58;;;;;;;11.82;5.38;;;;;;;18.41;100.00;100143.53;5014392;28;20084;-71
2023/05/21 08:12:23;;;;;;;12.60;5.68;;;;;;;18.43;100.00;100136.56;5012950;28;20084;-72
2023/05/21 08:14:49;;;;;;;11.00;5.35;;;;;;;18.48;100.00;100140.03;5014136;28;20034;-71
2023/05/21 08:17:15;;;;;;;9.50;5.45;;;;;;;18.43;100.00;100147.03;5012725;28;20060;-71
2023/05/21 08:19:41;;;;;;;9.90;6.05;;;;;;;18.41;100.00;100135.69;5012000;28;20112;-71
2023/05/21 08:22:06;;;;;;;12.00;5.85;;;;;;;18.46;100.00;100144.41;5013945;28;20037;-71
2023/05/21 08:24:32;;;;;;;12.52;6.00;;;;;;;18.48;100.00;100155.72;5014039;28;20088;-71
2023/05/21 08:26:57;;;;;;;13.02;5.22;;;;;;;18.46;100.00;100144.41;5014092;28;20033;-72
2023/05/21 08:29:23;;;;;;;11.73;5.65;;;;;;;18.48;100.00;100145.28;5013957;28;20443;-73
2023/05/21 08:31:48;;;;;;;8.90;5.68;;;;;;;18.49;100.00;100148.75;5014002;28;20469;-70
2023/05/21 08:34:15;;;;;;;9.32;5.30;;;;;;;18.43;100.00;100142.66;5013989;28;20033;-73
2023/05/21 08:36:42;;;;;;;10.75;6.07;;;;;;;18.08;100.00;100073.00;5013854;28;20022;-72
2023/05/21 08:39:09;;;;;;;10.85;5.65;;;;;;;18.31;100.00;100119.13;5013498;28;20046;-74
2023/05/21 08:41:35;;;;;;;13.63;5.90;;;;;;;18.46;100.00;100127.84;5013652;28;20117;-71
2023/05/21 08:44:01;;;;;;;12.70;7.10;;;;;;;18.56;100.00;100133.03;5013640;28;20034;-72
2023/05/21 08:46:35;;;;;;;10.18;6.65;;;;;;;18.73;100.00;100134.78;5011075;28;20038;-71
2023/05/21 08:49:01;;;;;;;12.20;6.97;;;;;;;18.87;100.00;100142.59;5013486;28;20036;-71
2023/05/21 08:51:27;;;;;;;13.43;6.93;;;;;;;18.99;100.00;100139.09;5013599;28;20037;-72
2023/05/21 08:53:54;;;;;;;15.95;6.32;;;;;;;19.13;100.00;100139.03;5013538;28;20105;-71
2023/05/21 08:56:20;;;;;;;11.20;6.35;;;;;;;19.18;100.00;100143.41;5013279;28;20125;-72
2023/05/21 08:58:47;;;;;;;8.73;5.88;;;;;;;19.33;100.00;100132.00;5013604;28;20025;-72
2023/05/21 09:01:13;;;;;;;7.60;5.47;;;;;;;19.53;100.00;100138.88;5013312;28;20520;-73
2023/05/21 09:03:39;;;;;;;9.45;5.97;;;;;;;19.59;100.00;100130.13;5010307;28;20030;-72
2023/05/21 09:06:14;;;;;;;10.30;5.15;;;;;;;19.50;100.00;100134.53;5013287;28;20668;-74
2023/05/21 09:08:47;;;;;;;12.63;5.70;;;;;;;19.12;100.00;100072.78;5013200;28;20468;-73
2023/05/21 09:11:13;;;;;;;9.10;5.78;;;;;;;19.66;100.00;100129.22;4994771;28;20030;-73
2023/05/21 09:13:40;;;;;;;10.82;5.72;;;;;;;19.48;97.71;100062.13;4988663;28;20038;-73
2023/05/21 09:16:06;;;;;;;9.55;5.40;;;;;;;19.94;97.06;100124.69;4991371;28;20113;-73
2023/05/21 09:18:32;;;;;;;10.57;5.43;;;;;;;19.97;100.00;100108.09;4993394;28;20033;-75
2023/05/21 09:21:24;;;;;;;7.50;5.28;;;;;;;20.15;97.24;100115.81;4991689;28;20034;-75
2023/05/21 09:24:00;;;;;;;10.18;5.10;;;;;;;19.99;94.02;100053.94;5023648;28;20094;-73
2023/05/21 09:26:26;;;;;;;9.82;5.50;;;;;;;20.57;94.69;100122.41;4941969;28;20050;-73
2023/05/21 09:28:56;;;;;;;9.75;5.15;;;;;;;20.75;96.86;100108.25;4992999;28;20093;-79
2023/05/21 09:31:23;;;;;;;8.75;5.47;;;;;;;20.79;93.69;100125.72;4992897;28;20027;-73
2023/05/21 09:33:48;;;;;;;12.55;5.38;;;;;;;20.73;94.69;100110.91;4993099;28;20448;-72
2023/05/21 09:36:16;;;;;;;10.20;5.38;;;;;;;20.65;94.85;100068.16;4993096;28;20031;-74
2023/05/21 09:38:43;;;;;;;13.55;5.63;;;;;;;21.32;94.17;100121.59;4991079;28;20065;-73
2023/05/21 09:41:09;;;;;;;13.85;5.28;;;;;;;21.46;93.08;100113.53;4992695;28;20037;-74
2023/05/21 09:43:35;;;;;;;8.20;4.50;;;;;;;21.79;87.43;100124.50;4992590;28;20022;-74
2023/05/21 09:46:01;;;;;;;8.35;4.15;;;;;;;22.07;74.71;100107.41;4992731;28;20101;-76
2023/05/21 09:48:40;;;;;;;6.53;4.32;;;;;;;21.90;72.95;100065.63;4992506;28;20481;-73
2023/05/21 09:51:07;;;;;;;;;;;;;;;22.23;73.54;100100.13;5023416;28;20046;-75
2023/05/21 09:53:32;;;;;;;10.68;4.50;;;;;;;22.27;75.52;100102.69;5022794;28;19914;-75
2023/05/21 09:55:58;;;;;;;12.75;4.15;;;;;;;22.32;73.97;100109.63;4992465;28;20473;-77
2023/05/21 09:58:24;;;;;;;8.23;4.38;;;;;;;22.29;72.13;100107.91;4992313;28;20088;-75
2023/05/21 10:00:51;;;;;;;8.88;4.18;;;;;;;22.31;68.67;100103.50;4991939;28;20026;-75
2023/05/21 10:03:22;;;;;;;12.05;4.28;;;;;;;22.42;72.02;100109.47;4989771;28;20034;-76
2023/05/21 10:05:51;;;;;;;7.70;4.10;;;;;;;22.18;71.54;100059.91;4990773;28;20515;-74
2023/05/21 10:08:21;;;;;;;10.13;5.60;;;;;;;22.57;70.51;100104.84;4992197;28;20034;-75
2023/05/21 10:10:48;;;;;;;6.55;4.55;;;;;;;22.62;73.72;100095.09;4992069;28;20448;-71
2023/05/21 10:13:17;;;;;;;13.05;4.72;;;;;;;22.65;71.40;100102.06;4992146;28;20113;-75
2023/05/21 10:15:52;;;;;;;9.93;4.38;;;;;;;22.68;71.24;100100.25;5007107;28;20088;-75
2023/05/21 10:18:18;;;;;;;14.10;4.10;;;;;;;22.84;69.76;100102.56;4992200;28;20042;-75
2023/05/21 10:20:45;;;;;;;15.30;4.95;;;;;;;22.89;72.30;100105.97;4991813;28;20029;-75
2023/05/21 10:23:11;;;;;;;8.48;4.18;;;;;;;22.89;68.70;100103.34;5005989;28;20124;-76
2023/05/21 10:25:38;;;;;;;9.20;4.80;;;;;;;22.94;72.09;100102.34;4991877;28;20057;-75
2023/05/21 10:28:05;;;;;;;9.60;4.15;;;;;;;22.89;66.41;100109.47;4992105;28;20030;-74
2023/05/21 10:30:32;;;;;;;8.88;4.20;;;;;;;22.83;63.95;100103.44;4991735;28;20395;-73
2023/05/21 10:32:58;;;;;;;10.70;4.10;;;;;;;22.90;63.55;100113.84;4992044;28;20037;-73
2023/05/21 10:35:24;;;;;;;8.70;3.95;;;;;;;22.86;64.19;100106.03;4991915;28;20100;-74
2023/05/21 10:38:12;;;;;;;10.50;4.00;;;;;;;22.89;64.75;100105.97;4988404;28;20567;-78
2023/05/21 10:40:37;;;;;;;13.80;5.03;;;;;;;22.84;66.08;100116.59;4988656;28;20145;-74
2023/05/21 10:43:12;;;;;;;7.88;3.38;;;;;;;22.81;67.19;100119.28;4987621;28;20117;-74
2023/05/21 10:46:00;;;;;;;8.32;4.18;;;;;;;22.62;68.30;100100.34;4988618;28;20505;-75
2023/05/21 10:48:43;;;;;;;10.27;4.07;;;;;;;22.75;69.73;100122.91;4989313;28;20064;-76
2023/05/21 10:51:18;;;;;;;11.48;4.20;;;;;;;22.82;67.95;100126.28;4988353;28;20038;-73
2023/05/21 10:53:47;;;;;;;11.23;4.05;;;;;;;22.84;67.30;100128.88;4988864;28;20050;-72
2023/05/21 10:56:29;;;;;;;6.55;3.97;;;;;;;22.85;69.32;100125.34;4988098;28;20700;-74
2023/05/21 10:59:36;;;;;;;8.63;3.95;;;;;;;22.89;67.07;100119.13;4988787;28;20030;-73
2023/05/21 11:02:04;;;;;;;9.55;4.20;;;;;;;22.60;67.49;100084.59;4969339;28;20073;-74
2023/05/21 11:04:29;;;;;;;8.30;3.80;;;;;;;22.46;65.50;100055.06;4969143;28;20034;-73
2023/05/21 11:06:57;;;;;;;8.20;4.60;;;;;;;22.86;69.49;100132.38;4969332;28;20038;-73
2023/05/21 11:09:22;;;;;;;7.63;3.80;;;;;;;22.75;68.69;100111.50;4969039;28;20258;-74
2023/05/21 11:11:57;;;;;;;8.40;4.05;;;;;;;22.86;66.35;100145.53;4969176;28;20498;-74
2023/05/21 11:14:55;;;;;;;9.40;4.18;;;;;;;22.36;68.68;100067.47;4969222;28;20031;-72
2023/05/21 11:17:37;;;;;;;9.15;3.92;;;;;;;22.53;69.24;100100.50;4969335;28;20114;-74
2023/05/21 11:20:07;;;;;;;6.25;3.42;;;;;;;22.69;64.79;100124.78;4968381;28;20074;-73
2023/05/21 11:22:34;;;;;;;9.45;4.30;;;;;;;22.66;66.33;100130.13;4969443;28;20031;-74
2023/05/21 11:25:01;;;;;;;7.85;4.10;;;;;;;22.64;64.86;100131.88;4969049;28;20113;-74